Time;durP1;ratioP1;P1;durP2;ratioP2;P2;SDS_P1;SDS_P2;PMS_P1;PMS_P2;Temp;Humidity;BMP_temperature;BMP_pressure;BME280_temperature;BME280_humidity;BME280_pressure;Samples;Min_cycle;Max_cycle;Signal;HPM_P1;HPM_P2
2022/05/04 00:01:35;;;;;;;11.32;8.07;;;18.00;55.10;;;;;;5131203;27;20020;-60
2022/05/04 00:04:01;;;;;;;12.90;8.18;;;18.00;55.00;;;;;;5131314;28;20023;-60
2022/05/04 00:06:27;;;;;;;12.88;7.70;;;18.10;55.10;;;;;;5132173;27;20019;-51
2022/05/04 00:08:53;;;;;;;11.40;7.95;;;18.10;55.00;;;;;;5112938;28;20134;-53
2022/05/04 00:11:19;;;;;;;10.75;7.20;;;18.00;54.90;;;;;;5132530;28;20094;-51
2022/05/04 00:13:44;;;;;;;11.32;7.60;;;18.10;55.00;;;;;;5113465;28;20034;-56
2022/05/04 00:16:10;;;;;;;10.98;7.80;;;18.10;55.00;;;;;;5131427;28;20034;-56
2022/05/04 00:18:36;;;;;;;11.55;7.47;;;18.00;55.00;;;;;;5131973;28;20387;-61
2022/05/04 00:21:02;;;;;;;11.40;7.60;;;18.00;55.00;;;;;;5132600;27;20023;-56
2022/05/04 00:23:28;;;;;;;9.77;7.72;;;18.10;55.10;;;;;;5132040;27;20027;-55
2022/05/04 00:25:53;;;;;;;12.98;7.70;;;18.10;55.10;;;;;;5131225;28;20034;-57
2022/05/04 00:28:19;;;;;;;12.15;7.53;;;18.10;55.00;;;;;;5131398;28;20020;-58
2022/05/04 00:30:45;;;;;;;11.15;7.40;;;18.10;55.00;;;;;;5131218;27;20383;-54
2022/05/04 00:33:11;;;;;;;27.08;7.60;;;18.10;55.00;;;;;;5113113;28;20493;-59
2022/05/04 00:35:37;;;;;;;15.93;7.90;;;18.00;55.00;;;;;;5131961;28;20027;-61
2022/05/04 00:38:03;;;;;;;12.73;6.93;;;18.10;55.10;;;;;;5131775;28;20023;-52
2022/05/04 00:40:29;;;;;;;11.35;7.30;;;18.00;55.10;;;;;;5131854;28;20070;-60
2022/05/04 00:42:55;;;;;;;9.13;7.25;;;18.10;55.20;;;;;;5111845;28;20243;-50
2022/05/04 00:45:21;;;;;;;13.23;7.32;;;18.10;55.10;;;;;;5131096;27;20038;-54
2022/05/04 00:47:46;;;;;;;9.40;7.53;;;18.10;55.10;;;;;;5130887;28;20388;-53
2022/05/04 00:50:12;;;;;;;9.40;7.43;;;18.10;55.00;;;;;;5132805;27;20027;-56
2022/05/04 00:52:42;;;;;;;11.80;7.30;;;18.10;55.00;;;;;;5135546;27;20062;-62
2022/05/04 00:55:09;;;;;;;9.40;6.97;;;18.20;54.90;;;;;;5133467;27;20027;-54
2022/05/04 01:00:23;;;;;;;11.88;6.28;;;18.20;54.80;;;;;;5135145;27;20076;-55
2022/05/04 01:02:48;;;;;;;9.40;6.45;;;18.30;54.70;;;;;;5135199;27;20403;-56
2022/05/04 01:05:14;;;;;;;9.60;6.35;;;18.30;54.70;;;;;;5134888;27;20019;-56
2022/05/04 01:07:42;;;;;;;7.00;6.20;;;18.30;54.60;;;;;;5134657;27;20023;-61
2022/05/04 01:10:09;;;;;;;8.18;6.28;;;18.30;54.60;;;;;;5134530;27;20019;-56
2022/05/04 01:12:36;;;;;;;9.57;6.45;;;18.30;54.60;;;;;;5116539;27;20468;-53
2022/05/04 01:15:02;;;;;;;10.02;6.45;;;18.30;54.60;;;;;;5133718;27;20027;-51
2022/05/04 01:17:28;;;;;;;9.20;6.53;;;18.30;54.70;;;;;;5134727;27;20031;-57
2022/05/04 01:20:13;;;;;;;7.38;6.32;;;18.30;54.70;;;;;;5116105;27;20098;-55
2022/05/04 01:22:39;;;;;;;7.90;5.75;;;18.30;54.70;;;;;;5134888;27;20034;-61
2022/05/04 01:25:06;;;;;;;10.15;6.68;;;18.30;54.80;;;;;;5134022;27;20015;-52
2022/05/04 01:27:32;;;;;;;11.55;6.38;;;18.30;54.90;;;;;;5115592;27;20472;-54
2022/05/04 01:29:58;;;;;;;11.88;6.57;;;18.20;54.90;;;;;;5133830;27;20021;-53
2022/05/04 01:32:24;;;;;;;7.65;5.88;;;18.20;54.90;;;;;;5132803;27;20019;-59
2022/05/04 01:34:50;;;;;;;9.52;6.15;;;18.20;54.90;;;;;;5133441;27;20068;-56
2022/05/04 01:37:16;;;;;;;7.20;6.13;;;18.20;54.80;;;;;;5116609;27;20340;-52
2022/05/04 01:39:41;;;;;;;7.97;6.45;;;18.20;54.90;;;;;;5134003;27;20066;-62
2022/05/04 01:42:13;;;;;;;10.93;6.93;;;18.20;54.90;;;;;;5134463;27;20023;-54
2022/05/04 01:44:39;;;;;;;11.70;6.22;;;18.20;55.00;;;;;;5133814;27;20408;-54
2022/05/04 01:47:05;;;;;;;13.13;7.75;;;18.10;55.10;;;;;;5133650;27;20019;-53
2022/05/04 01:49:31;;;;;;;7.75;6.45;;;18.10;55.20;;;;;;5115793;27;20030;-55
2022/05/04 01:51:57;;;;;;;11.40;6.93;;;18.00;55.40;;;;;;5132562;27;20023;-55
2022/05/04 01:54:23;;;;;;;7.82;6.78;;;18.00;55.60;;;;;;5133638;27;20039;-56
2022/05/04 01:56:48;;;;;;;11.63;7.60;;;17.80;55.70;;;;;;5133230;27;20102;-56
2022/05/04 01:59:14;;;;;;;10.02;7.20;;;17.80;55.90;;;;;;5134133;27;20691;-56
2022/05/04 02:01:41;;;;;;;15.20;7.82;;;17.70;56.00;;;;;;5133868;27;20023;-52
2022/05/04 02:04:08;;;;;;;15.77;7.07;;;17.70;56.20;;;;;;5133471;27;20031;-52
2022/05/04 02:06:36;;;;;;;8.77;7.38;;;17.60;56.30;;;;;;5115094;27;20020;-53
2022/05/04 02:09:02;;;;;;;7.30;6.60;;;17.60;56.40;;;;;;5133133;27;20245;-56
2022/05/04 02:11:29;;;;;;;8.98;7.15;;;17.60;56.50;;;;;;5133591;27;20053;-56
2022/05/04 02:13:55;;;;;;;8.93;7.30;;;17.60;56.70;;;;;;5114910;27;20185;-56
2022/05/04 02:16:40;;;;;;;13.77;7.75;;;17.50;56.80;;;;;;5134082;27;20111;-55
2022/05/04 02:19:05;;;;;;;10.90;6.80;;;17.50;57.10;;;;;;5133534;27;20413;-58
2022/05/04 02:21:31;;;;;;;9.35;7.43;;;17.40;57.20;;;;;;5133701;27;20088;-55
2022/05/04 02:23:57;;;;;;;10.55;7.50;;;17.40;57.30;;;;;;5133188;27;20030;-55
2022/05/04 02:26:22;;;;;;;9.52;8.13;;;17.30;57.50;;;;;;5115718;27;20016;-54
2022/05/04 02:28:48;;;;;;;11.10;7.35;;;17.20;58.10;;;;;;5132842;27;20016;-56
2022/05/04 02:31:13;;;;;;;12.68;7.93;;;17.20;58.10;;;;;;5133654;27;20074;-56
2022/05/04 02:33:39;;;;;;;10.35;7.80;;;17.20;58.20;;;;;;5115551;27;20430;-53
2022/05/04 02:38:49;;;;;;;13.15;7.90;;;17.20;58.30;;;;;;5133308;27;20160;-53
2022/05/04 02:41:14;;;;;;;9.77;7.72;;;17.20;58.30;;;;;;5133586;27;20064;-54
2022/05/04 02:43:40;;;;;;;16.17;8.02;;;17.20;58.40;;;;;;5133096;27;20043;-56
2022/05/04 02:46:32;;;;;;;12.07;8.43;;;17.30;58.40;;;;;;5132787;27;20098;-53
2022/05/04 02:48:59;;;;;;;11.63;8.18;;;17.30;58.90;;;;;;5128219;27;20118;-56
2022/05/04 02:51:25;;;;;;;11.75;8.82;;;17.30;58.60;;;;;;5115140;27;20027;-58
2022/05/04 02:53:51;;;;;;;12.80;8.88;;;17.30;58.70;;;;;;5132668;27;20033;-56
2022/05/04 02:56:17;;;;;;;10.98;8.25;;;17.30;58.80;;;;;;5133122;27;20019;-51
2022/05/04 02:58:43;;;;;;;9.80;8.32;;;17.30;58.80;;;;;;5115032;27;20054;-53
2022/05/04 03:04:03;;;;;;;11.38;8.73;;;17.30;59.00;;;;;;5132227;27;20042;-52
2022/05/04 03:06:29;;;;;;;13.80;8.80;;;17.30;59.10;;;;;;5114646;27;20475;-56
2022/05/04 03:08:55;;;;;;;13.15;8.80;;;17.30;59.30;;;;;;5132398;27;20019;-55
2022/05/04 03:14:07;;;;;;;;;;;17.30;59.30;;;;;;5132320;27;20034;-56
2022/05/04 03:16:34;;;;;;;10.18;8.50;;;17.20;60.00;;;;;;5132942;27;20278;-55
2022/05/04 03:19:00;;;;;;;16.10;9.30;;;17.20;59.60;;;;;;5132413;27;20368;-52
2022/05/04 03:21:25;;;;;;;12.68;9.05;;;17.20;59.80;;;;;;5132874;27;20076;-53
2022/05/04 03:23:51;;;;;;;14.15;9.48;;;17.20;59.80;;;;;;5132082;27;20110;-60
2022/05/04 03:26:18;;;;;;;11.65;8.88;;;17.30;59.80;;;;;;5132737;27;20443;-56
2022/05/04 03:28:44;;;;;;;12.50;9.13;;;17.30;59.70;;;;;;5097352;27;20051;-53
2022/05/04 03:31:10;;;;;;;13.82;8.98;;;17.30;59.40;;;;;;5113892;27;20023;-55
2022/05/04 03:33:36;;;;;;;12.00;8.63;;;17.30;59.30;;;;;;5113636;27;20060;-55
2022/05/04 03:36:01;;;;;;;14.98;9.75;;;17.30;59.30;;;;;;5113540;28;20486;-56
2022/05/04 03:38:27;;;;;;;13.48;8.25;;;17.30;59.30;;;;;;5132791;27;20031;-53
2022/05/04 03:40:53;;;;;;;12.90;8.07;;;17.30;59.20;;;;;;5132194;27;20055;-62
2022/05/04 03:43:18;;;;;;;12.65;8.00;;;17.30;59.80;;;;;;5132068;27;20088;-55
2022/05/04 03:45:44;;;;;;;12.48;7.82;;;17.30;59.10;;;;;;5132031;27;20375;-57
2022/05/04 03:48:11;;;;;;;10.55;7.60;;;17.20;59.10;;;;;;5113149;27;20042;-52
2022/05/04 03:50:36;;;;;;;11.30;7.35;;;17.30;59.20;;;;;;5132239;27;20102;-52
2022/05/04 03:53:02;;;;;;;15.10;8.05;;;17.20;59.20;;;;;;5132101;27;20102;-53
2022/05/04 03:55:28;;;;;;;17.10;7.55;;;17.20;59.30;;;;;;5132647;28;20482;-50
2022/05/04 03:57:53;;;;;;;10.93;7.28;;;17.20;59.40;;;;;;5113194;28;20028;-60
2022/05/04 04:00:19;;;;;;;12.35;7.38;;;17.10;59.50;;;;;;5132335;27;20491;-51
2022/05/04 04:02:45;;;;;;;13.93;6.90;;;17.10;59.50;;;;;;5132167;28;20444;-50
2022/05/04 04:05:11;;;;;;;10.82;7.35;;;17.20;59.50;;;;;;5131629;27;20087;-55
2022/05/04 04:07:36;;;;;;;9.13;7.25;;;17.20;59.50;;;;;;5132128;28;20030;-49
2022/05/04 04:10:02;;;;;;;11.50;7.40;;;17.20;59.50;;;;;;5130860;28;20019;-57
2022/05/04 04:12:28;;;;;;;13.88;6.97;;;17.20;59.50;;;;;;5132154;27;20030;-54
2022/05/04 04:14:54;;;;;;;9.70;7.50;;;17.20;59.50;;;;;;5131532;28;20023;-60
2022/05/04 04:17:19;;;;;;;10.90;7.57;;;17.20;59.50;;;;;;5129802;27;20148;-56
2022/05/04 04:21:50;;;;;;;12.48;7.47;;;17.20;59.60;;;;;;5111921;28;20023;-56
2022/05/04 04:22:30;;;;;;;13.23;8.40;;;17.20;59.70;;;;;;5130756;27;20111;-61
2022/05/04 04:24:56;;;;;;;14.15;9.05;;;17.30;59.60;;;;;;5132652;27;20054;-57
2022/05/04 04:27:22;;;;;;;12.40;8.93;;;17.40;59.40;;;;;;5116035;27;20055;-51
2022/05/04 04:29:47;;;;;;;13.05;9.10;;;17.30;59.30;;;;;;5133390;27;20023;-56
2022/05/04 04:32:13;;;;;;;14.50;9.48;;;17.40;59.50;;;;;;5133751;27;20042;-53
2022/05/04 04:34:39;;;;;;;15.60;8.88;;;17.40;59.40;;;;;;5134760;27;20094;-55
2022/05/04 04:37:04;;;;;;;12.55;8.50;;;17.40;59.20;;;;;;5132847;27;20444;-53
2022/05/04 04:39:30;;;;;;;13.98;8.77;;;17.40;59.20;;;;;;5133477;27;20396;-54
2022/05/04 04:41:56;;;;;;;12.82;8.43;;;17.30;59.20;;;;;;5114623;27;20023;-61
2022/05/04 04:44:22;;;;;;;12.10;8.15;;;17.30;59.20;;;;;;5114997;27;20047;-60
2022/05/04 04:46:47;;;;;;;12.35;8.00;;;17.40;59.10;;;;;;5135441;27;20102;-54
2022/05/04 04:49:14;;;;;;;11.98;7.75;;;17.50;59.00;;;;;;5132535;27;20027;-54
2022/05/04 04:51:39;;;;;;;9.68;8.18;;;17.50;58.70;;;;;;5134110;27;20026;-53
2022/05/04 04:54:05;;;;;;;17.20;8.05;;;17.50;58.40;;;;;;5132819;27;20019;-54
2022/05/04 04:56:31;;;;;;;13.43;8.80;;;17.40;58.40;;;;;;5115820;27;20027;-54
2022/05/04 04:58:57;;;;;;;11.48;7.65;;;17.50;58.50;;;;;;5131343;27;20020;-60
2022/05/04 05:01:22;;;;;;;11.02;7.43;;;17.50;58.40;;;;;;5134072;27;20019;-54
2022/05/04 05:03:48;;;;;;;12.13;7.80;;;17.50;58.30;;;;;;5133750;27;20023;-55
2022/05/04 05:06:13;;;;;;;9.82;7.88;;;17.50;58.20;;;;;;5105989;27;20011;-62
2022/05/04 05:08:41;;;;;;;10.35;7.63;;;17.60;58.10;;;;;;5121344;27;20582;-55
2022/05/04 05:11:07;;;;;;;15.38;7.72;;;17.60;58.00;;;;;;5112809;27;20114;-56
2022/05/04 05:16:06;;;;;;;16.73;8.32;;;17.60;58.00;;;;;;5130288;27;20123;-52
2022/05/04 05:16:18;;;;;;;9.90;7.60;;;17.70;58.00;;;;;;5124559;27;20490;-55
2022/05/04 05:18:44;;;;;;;13.75;7.75;;;17.70;57.90;;;;;;5132901;27;20035;-53
2022/05/04 05:21:10;;;;;;;12.35;8.10;;;17.70;57.70;;;;;;5131928;27;20034;-58
2022/05/04 05:23:36;;;;;;;13.32;8.80;;;17.80;57.60;;;;;;5115817;27;20387;-56
2022/05/04 05:26:01;;;;;;;15.07;9.30;;;17.80;57.60;;;;;;5113742;27;20024;-54
2022/05/04 05:28:47;;;;;;;16.58;9.25;;;17.80;57.50;;;;;;5133268;27;20027;-55
2022/05/04 05:31:13;;;;;;;12.05;9.25;;;17.80;57.50;;;;;;5132186;27;20484;-55
2022/05/04 05:33:39;;;;;;;22.08;11.43;;;17.70;57.60;;;;;;5132451;27;20145;-55
2022/05/04 05:36:07;;;;;;;17.80;9.38;;;17.70;57.70;;;;;;5132992;27;20054;-54
2022/05/04 05:38:32;;;;;;;14.57;9.32;;;17.80;57.70;;;;;;5132552;27;20026;-56
2022/05/04 05:40:59;;;;;;;12.20;10.05;;;17.90;57.60;;;;;;5132176;27;20471;-60
2022/05/04 05:43:25;;;;;;;13.70;9.65;;;18.00;57.50;;;;;;5132960;27;20046;-53
2022/05/04 05:45:51;;;;;;;13.57;10.23;;;18.20;57.20;;;;;;5132870;27;20083;-56
2022/05/04 05:48:19;;;;;;;13.20;9.80;;;18.30;56.80;;;;;;5114309;27;20460;-56
2022/05/04 05:50:44;;;;;;;15.27;9.38;;;18.50;56.30;;;;;;5115652;27;20030;-55
2022/05/04 05:53:10;;;;;;;12.75;9.57;;;18.70;55.90;;;;;;5133887;27;20476;-58
2022/05/04 05:55:36;;;;;;;14.68;10.32;;;18.90;55.30;;;;;;5133929;27;20491;-56
2022/05/04 05:58:02;;;;;;;12.38;9.48;;;19.00;54.70;;;;;;5115381;27;20019;-53
2022/05/04 06:00:27;;;;;;;10.93;9.63;;;19.00;54.20;;;;;;5131439;27;20031;-53
2022/05/04 06:02:53;;;;;;;10.50;9.40;;;19.00;54.20;;;;;;5132055;27;20132;-62
2022/05/04 06:05:19;;;;;;;14.55;9.68;;;19.00;54.20;;;;;;5132583;27;20094;-53
2022/05/04 06:07:44;;;;;;;12.23;9.88;;;19.10;54.20;;;;;;5132697;27;20102;-55
2022/05/04 06:10:10;;;;;;;12.15;9.77;;;19.20;53.80;;;;;;5131729;27;20019;-52
2022/05/04 06:12:38;;;;;;;10.55;9.45;;;19.30;53.40;;;;;;5132374;27;20029;-54
2022/05/04 06:15:04;;;;;;;18.13;11.35;;;19.40;53.20;;;;;;5132226;27;20487;-54
2022/05/04 06:17:30;;;;;;;15.40;9.95;;;19.50;53.00;;;;;;5132455;27;20463;-56
2022/05/04 06:19:56;;;;;;;15.95;9.93;;;19.60;52.70;;;;;;5132169;27;20030;-57
2022/05/04 06:22:21;;;;;;;13.52;9.73;;;19.70;52.30;;;;;;5112312;27;20027;-56
2022/05/04 06:24:47;;;;;;;15.60;9.73;;;19.80;52.10;;;;;;5132773;27;20075;-63
2022/05/04 06:27:13;;;;;;;13.70;9.57;;;19.90;51.90;;;;;;5131441;27;20046;-56
2022/05/04 06:35:07;;;;;;;13.85;9.23;;;20.00;51.20;;;;;;5130593;27;19909;-57
2022/05/04 06:37:33;;;;;;;12.15;9.80;;;20.00;51.50;;;;;;5113199;27;20118;-55
2022/05/04 06:39:58;;;;;;;17.10;9.57;;;20.00;51.40;;;;;;5131713;27;20027;-55
2022/05/04 06:42:24;;;;;;;11.27;9.07;;;20.10;51.10;;;;;;5130664;27;20130;-56
2022/05/04 06:44:50;;;;;;;12.98;9.20;;;20.20;50.70;;;;;;5131094;27;20023;-59
2022/05/04 06:47:15;;;;;;;14.27;9.25;;;20.20;50.70;;;;;;5129091;27;20071;-53
2022/05/04 06:49:43;;;;;;;15.70;9.55;;;20.30;50.70;;;;;;5114090;27;20026;-55
2022/05/04 06:52:08;;;;;;;12.80;9.20;;;20.40;50.30;;;;;;5112577;27;20023;-56
2022/05/04 06:54:35;;;;;;;26.63;10.43;;;20.60;50.20;;;;;;5130654;27;20029;-57
2022/05/04 06:57:01;;;;;;;26.05;10.90;;;21.00;49.90;;;;;;5130800;27;20471;-64
2022/05/04 06:59:27;;;;;;;13.15;9.10;;;22.20;49.00;;;;;;5132186;27;20041;-64
2022/05/04 07:01:53;;;;;;;16.10;9.02;;;24.50;46.30;;;;;;5131448;27;20025;-58
2022/05/04 07:04:19;;;;;;;15.68;8.35;;;27.10;41.50;;;;;;5112003;27;20068;-59
2022/05/04 07:06:44;;;;;;;11.48;9.38;;;29.90;38.00;;;;;;5131274;27;20015;-57
2022/05/04 07:09:10;;;;;;;22.33;8.40;;;32.10;33.60;;;;;;5130309;27;20387;-62
2022/05/04 07:11:36;;;;;;;13.52;8.32;;;34.20;31.60;;;;;;5132415;27;20361;-57
2022/05/04 07:14:02;;;;;;;11.43;7.43;;;35.80;29.40;;;;;;5130723;27;20106;-62
2022/05/04 07:16:28;;;;;;;8.70;6.43;;;36.60;28.30;;;;;;5130270;27;20369;-57
2022/05/04 07:18:53;;;;;;;10.98;7.57;;;35.10;28.00;;;;;;5112378;27;20031;-59
2022/05/04 07:21:19;;;;;;;19.80;9.00;;;32.50;29.10;;;;;;5131872;27;20024;-55
2022/05/04 07:23:44;;;;;;;15.63;7.38;;;30.70;30.70;;;;;;5130826;27;20065;-58
2022/05/04 07:26:10;;;;;;;15.07;8.80;;;29.40;32.20;;;;;;5130115;27;20020;-57
2022/05/04 07:28:36;;;;;;;17.15;8.00;;;30.00;33.20;;;;;;5111627;27;20023;-56
2022/05/04 07:31:03;;;;;;;8.75;7.95;;;32.40;31.00;;;;;;5113777;27;20041;-61
2022/05/04 07:33:29;;;;;;;15.50;7.38;;;34.20;29.70;;;;;;5108028;27;20459;-59
2022/05/04 07:35:55;;;;;;;9.13;7.55;;;36.40;28.40;;;;;;5129502;27;20022;-58
2022/05/04 07:38:21;;;;;;;10.18;6.90;;;38.30;27.30;;;;;;5110990;27;20525;-61
2022/05/04 07:43:31;;;;;;;11.75;7.10;;;41.10;25.70;;;;;;5115036;27;20594;-55
2022/05/04 07:45:57;;;;;;;11.05;6.88;;;42.20;24.70;;;;;;5128983;27;20047;-64
2022/05/04 07:48:22;;;;;;;14.00;7.85;;;42.80;24.40;;;;;;5129365;27;20244;-61
2022/05/04 07:50:48;;;;;;;9.65;7.35;;;43.60;24.50;;;;;;5111273;27;20410;-59
2022/05/04 07:53:14;;;;;;;14.35;7.13;;;44.60;23.60;;;;;;5130743;28;20518;-62
2022/05/04 07:55:40;;;;;;;10.23;7.75;;;45.30;23.00;;;;;;5130276;27;20019;-59
2022/05/04 07:58:05;;;;;;;17.08;8.23;;;46.00;22.70;;;;;;5093971;28;20023;-64
2022/05/04 08:06:04;;;;;;;9.40;7.15;;;47.20;22.50;;;;;;5134689;27;20026;-63
2022/05/04 08:08:29;;;;;;;11.60;7.30;;;47.40;21.70;;;;;;5134953;27;20100;-60
2022/05/04 08:10:57;;;;;;;19.52;8.40;;;47.80;21.60;;;;;;5113879;27;20034;-58
2022/05/04 08:13:22;;;;;;;18.00;7.18;;;48.20;21.40;;;;;;5132412;27;20023;-60
2022/05/04 08:15:48;;;;;;;8.63;7.30;;;48.00;21.10;;;;;;5133579;27;20019;-64
2022/05/04 08:18:14;;;;;;;11.57;7.00;;;47.90;21.10;;;;;;5116552;27;20019;-59
2022/05/04 08:20:40;;;;;;;7.80;6.95;;;47.90;21.20;;;;;;5132773;27;20115;-60
2022/05/04 08:23:06;;;;;;;15.32;7.72;;;48.50;21.10;;;;;;5133300;27;20031;-61
2022/05/04 08:25:32;;;;;;;7.75;6.90;;;48.90;20.80;;;;;;5134265;27;20019;-62
2022/05/04 08:27:59;;;;;;;7.03;6.28;;;48.90;20.50;;;;;;5134284;27;20056;-64
2022/05/04 08:30:25;;;;;;;13.18;8.77;;;48.10;20.80;;;;;;5134315;27;20098;-60
2022/05/04 08:32:51;;;;;;;9.63;7.10;;;47.10;21.10;;;;;;5131993;27;20144;-63
2022/05/04 08:35:19;;;;;;;8.98;7.10;;;46.90;21.00;;;;;;5133547;27;20113;-60
2022/05/04 08:37:45;;;;;;;12.48;7.00;;;47.40;21.10;;;;;;5133325;27;20027;-59
2022/05/04 08:40:11;;;;;;;12.75;7.63;;;47.30;21.50;;;;;;5134761;27;20023;-57
2022/05/04 08:42:45;;;;;;;10.65;6.93;;;46.90;21.10;;;;;;5131512;27;20096;-62
2022/05/04 08:45:31;;;;;;;11.80;7.68;;;45.50;21.10;;;;;;5132154;27;20160;-62
2022/05/04 08:48:00;;;;;;;11.27;7.57;;;43.00;22.10;;;;;;5130700;27;20023;-60
2022/05/04 08:50:27;;;;;;;9.13;7.28;;;39.80;23.30;;;;;;5114263;27;20019;-62
2022/05/04 08:52:54;;;;;;;12.18;7.70;;;38.00;24.30;;;;;;5133690;27;20023;-63
2022/05/04 08:55:21;;;;;;;12.70;7.93;;;37.00;25.10;;;;;;5114548;27;20369;-56
2022/05/04 08:57:47;;;;;;;18.40;8.20;;;36.10;25.60;;;;;;5113865;27;20039;-64
2022/05/04 09:00:14;;;;;;;19.08;9.63;;;35.60;26.00;;;;;;5114374;27;20024;-60
2022/05/04 09:02:40;;;;;;;11.23;7.45;;;36.10;25.90;;;;;;5133181;27;20139;-68
2022/05/04 09:05:24;;;;;;;13.27;7.55;;;36.40;26.10;;;;;;5131967;27;20046;-60
2022/05/04 09:07:52;;;;;;;11.38;7.05;;;36.00;25.80;;;;;;5114110;27;20415;-65
2022/05/04 09:10:34;;;;;;;13.43;7.35;;;35.40;25.90;;;;;;5130652;27;20028;-58
2022/05/04 09:13:00;;;;;;;16.83;7.85;;;34.40;26.70;;;;;;5130729;27;20029;-58
2022/05/04 09:15:28;;;;;;;14.18;7.95;;;33.70;27.20;;;;;;5132122;27;20035;-60
2022/05/04 09:17:56;;;;;;;16.38;7.63;;;33.00;27.70;;;;;;5132551;27;20019;-67
2022/05/04 09:20:49;;;;;;;16.02;9.93;;;32.00;28.50;;;;;;5132126;27;20107;-58
2022/05/04 09:23:21;;;;;;;12.63;8.90;;;31.20;29.10;;;;;;5113117;27;20356;-62
2022/05/04 09:25:54;;;;;;;11.63;9.00;;;30.40;29.80;;;;;;5131585;27;20031;-61
2022/05/04 09:28:20;;;;;;;;;;;29.90;30.50;;;;;;5132482;27;20011;-59
2022/05/04 09:30:51;;;;;;;22.08;8.65;;;29.10;31.40;;;;;;5133354;27;19903;-62
2022/05/04 09:33:23;;;;;;;31.20;11.00;;;28.20;32.50;;;;;;5113036;27;20023;-66
2022/05/04 09:35:49;;;;;;;14.07;9.98;;;27.90;33.10;;;;;;5130853;27;20050;-66
2022/05/04 09:46:49;;;;;;;11.07;9.52;;;27.00;34.40;;;;;;5132272;27;20084;-68
2022/05/04 09:49:19;;;;;;;13.25;9.82;;;26.80;34.80;;;;;;5112024;27;20528;-69
2022/05/04 09:54:32;;;;;;;13.40;8.82;;;26.60;35.30;;;;;;5131234;27;20510;-70
2022/05/04 09:57:00;;;;;;;18.92;11.23;;;26.60;35.40;;;;;;5130282;27;20031;-70
2022/05/04 09:59:31;;;;;;;16.17;10.95;;;26.70;35.50;;;;;;5131033;27;20028;-73
2022/05/04 10:02:00;;;;;;;20.10;11.43;;;26.50;35.80;;;;;;5130837;27;20034;-70
2022/05/04 10:04:26;;;;;;;16.92;11.45;;;26.50;36.00;;;;;;5109621;27;20039;-69
2022/05/04 10:06:54;;;;;;;17.63;11.23;;;26.40;36.10;;;;;;5126692;27;20483;-72
2022/05/04 10:09:22;;;;;;;23.30;13.50;;;26.40;36.10;;;;;;5130565;27;20344;-66
2022/05/04 10:11:56;;;;;;;51.53;35.25;;;26.30;36.10;;;;;;5132100;27;20019;-69
2022/05/04 10:14:22;;;;;;;14.90;11.82;;;26.10;36.30;;;;;;5132659;27;20049;-67
2022/05/04 10:16:48;;;;;;;12.02;9.10;;;25.90;36.50;;;;;;5114330;27;20536;-66
2022/05/04 10:19:23;;;;;;;11.40;9.63;;;25.90;36.60;;;;;;5132293;27;20102;-69
2022/05/04 10:21:52;;;;;;;12.35;9.25;;;26.00;36.70;;;;;;5131564;27;20019;-68
2022/05/04 10:24:23;;;;;;;16.85;9.82;;;26.00;36.60;;;;;;5132204;27;20087;-70
2022/05/04 10:26:49;;;;;;;15.32;9.30;;;25.90;36.80;;;;;;5131547;27;20019;-68
2022/05/04 10:32:28;;;;;;;14.32;9.95;;;25.40;37.40;;;;;;5132853;27;20039;-69
2022/05/04 10:35:20;;;;;;;14.88;9.02;;;25.40;37.40;;;;;;5132229;27;20023;-72
2022/05/04 10:38:15;;;;;;;12.40;7.95;;;25.50;37.40;;;;;;5113554;27;20113;-68
2022/05/04 10:40:50;;;;;;;9.90;8.02;;;25.40;37.60;;;;;;5113542;27;20380;-68
2022/05/04 10:43:40;;;;;;;11.18;7.40;;;25.50;37.70;;;;;;5112648;27;20439;-68
2022/05/04 10:46:30;;;;;;;14.23;7.45;;;25.40;37.60;;;;;;5112652;27;20088;-68
2022/05/04 10:49:05;;;;;;;15.30;9.55;;;25.40;38.00;;;;;;5100858;27;20065;-72
2022/05/04 10:51:37;;;;;;;14.70;8.65;;;25.50;37.90;;;;;;5114094;27;20079;-69
2022/05/04 10:54:18;;;;;;;14.75;9.95;;;25.50;37.80;;;;;;5131335;27;20111;-68
2022/05/04 10:56:49;;;;;;;15.15;9.00;;;25.60;37.80;;;;;;5131961;27;20027;-69
2022/05/04 10:59:26;;;;;;;15.55;12.55;;;25.50;37.50;;;;;;5131747;27;20308;-68
2022/05/04 11:02:04;;;;;;;27.25;9.10;;;25.30;37.40;;;;;;5113191;27;20027;-69
2022/05/04 11:04:30;;;;;;;14.93;10.13;;;25.20;37.90;;;;;;5131831;27;20096;-69
2022/05/04 11:07:15;;;;;;;19.52;10.75;;;24.70;38.30;;;;;;5131943;27;20023;-70
2022/05/04 11:09:46;;;;;;;16.52;9.88;;;24.60;39.00;;;;;;5113223;27;20027;-68
2022/05/04 11:12:13;;;;;;;11.55;8.90;;;24.70;38.90;;;;;;5131023;27;20073;-69
2022/05/04 11:14:39;;;;;;;12.60;8.13;;;24.80;38.60;;;;;;5131642;27;20023;-68
2022/05/04 11:17:15;;;;;;;22.55;16.20;;;25.00;38.00;;;;;;5112282;27;20428;-69
2022/05/04 11:19:44;;;;;;;10.52;8.68;;;24.70;38.10;;;;;;5131527;27;20019;-69
2022/05/04 11:22:11;;;;;;;9.45;6.65;;;24.60;38.30;;;;;;5113161;27;20034;-70
2022/05/04 11:24:37;;;;;;;9.90;7.88;;;24.80;38.40;;;;;;5131513;27;20043;-69
2022/05/04 11:27:04;;;;;;;18.73;12.05;;;24.80;38.30;;;;;;5112256;27;20102;-69
2022/05/04 11:29:30;;;;;;;14.43;9.05;;;24.90;38.40;;;;;;5131865;27;20026;-69
2022/05/04 11:32:01;;;;;;;28.48;21.77;;;25.00;38.40;;;;;;5131489;27;20075;-68
2022/05/04 11:34:34;;;;;;;14.60;7.70;;;25.00;38.20;;;;;;5112034;27;20023;-68
2022/05/04 11:37:10;;;;;;;9.73;5.40;;;25.20;37.80;;;;;;5127815;27;20306;-74
2022/05/04 11:39:38;;;;;;;13.50;6.68;;;25.10;37.60;;;;;;5111000;27;20023;-72
2022/05/04 11:42:05;;;;;;;14.60;7.55;;;25.10;37.80;;;;;;5129002;27;20019;-68
2022/05/04 11:44:31;;;;;;;15.73;8.65;;;25.20;37.50;;;;;;5110567;27;20047;-70
2022/05/04 11:46:59;;;;;;;22.00;10.32;;;25.30;37.50;;;;;;5110034;27;20023;-72
2022/05/04 11:49:30;;;;;;;16.02;10.20;;;25.60;37.30;;;;;;5109425;27;20038;-69
2022/05/04 11:51:57;;;;;;;7.85;6.30;;;25.50;37.30;;;;;;5130523;27;20023;-66
2022/05/04 11:54:23;;;;;;;12.20;5.95;;;25.50;37.00;;;;;;5109595;27;20038;-70
2022/05/04 11:56:49;;;;;;;29.60;14.10;;;25.50;37.00;;;;;;5129254;27;20019;-69
2022/05/04 11:59:15;;;;;;;14.38;6.60;;;25.60;36.90;;;;;;5128565;27;20022;-66
2022/05/04 12:01:41;;;;;;;9.63;6.40;;;25.40;37.10;;;;;;5110359;28;20024;-73
2022/05/04 12:04:09;;;;;;;17.75;6.10;;;25.10;37.30;;;;;;5128635;27;20114;-66
2022/05/04 12:06:36;;;;;;;10.15;5.30;;;25.10;37.30;;;;;;5110317;28;20042;-66
2022/05/04 12:09:04;;;;;;;11.88;5.57;;;25.10;37.20;;;;;;5110014;28;20023;-72
2022/05/04 12:11:31;;;;;;;11.07;6.22;;;25.20;37.40;;;;;;5128828;27;20080;-65
2022/05/04 12:13:59;;;;;;;11.73;6.50;;;25.40;36.80;;;;;;5131172;27;20106;-64
2022/05/04 12:16:25;;;;;;;12.73;5.35;;;25.60;36.70;;;;;;5127911;27;20471;-65
2022/05/04 12:18:51;;;;;;;10.02;5.40;;;25.70;36.70;;;;;;5125455;27;20069;-65
2022/05/04 12:21:22;;;;;;;9.70;5.63;;;25.60;36.90;;;;;;5126604;28;20383;-72
2022/05/04 12:23:50;;;;;;;22.52;8.65;;;25.70;37.00;;;;;;5122432;28;20019;-63
2022/05/04 12:26:18;;;;;;;18.13;6.22;;;25.80;36.90;;;;;;5128770;27;20011;-71
2022/05/04 12:34:20;;;;;;;13.60;5.65;;;25.40;37.40;;;;;;5128014;28;20046;-67
2022/05/04 12:36:47;;;;;;;13.57;6.40;;;25.40;36.90;;;;;;5128519;28;20024;-65
2022/05/04 12:39:12;;;;;;;8.45;4.80;;;25.20;37.00;;;;;;5128554;27;20027;-64
2022/05/04 12:41:39;;;;;;;11.18;5.50;;;25.10;37.10;;;;;;5130235;27;20047;-65
2022/05/04 12:44:06;;;;;;;12.10;5.38;;;25.00;37.20;;;;;;5090270;28;20071;-71
2022/05/04 12:46:32;;;;;;;9.60;5.65;;;24.90;37.20;;;;;;5089523;28;20036;-65
2022/05/04 12:48:59;;;;;;;10.07;5.47;;;24.90;37.30;;;;;;5091263;28;20099;-64
2022/05/04 12:51:25;;;;;;;10.20;5.55;;;24.90;37.30;;;;;;5090348;28;20024;-69
2022/05/04 12:53:53;;;;;;;10.95;5.95;;;24.80;37.80;;;;;;5092430;28;20160;-66
2022/05/04 12:59:04;;;;;;;14.57;4.20;;;24.60;38.10;;;;;;5091367;28;20309;-74
2022/05/04 13:01:32;;;;;;;9.50;4.05;;;24.40;38.50;;;;;;5091486;28;20054;-63
2022/05/04 13:03:59;;;;;;;5.43;3.25;;;24.10;39.00;;;;;;5091796;28;20016;-66
2022/05/04 13:06:26;;;;;;;9.07;3.63;;;23.90;39.70;;;;;;5091814;28;20078;-66
2022/05/04 13:08:52;;;;;;;9.15;4.13;;;23.80;40.70;;;;;;5093285;28;20032;-66
2022/05/04 13:11:20;;;;;;;10.77;5.07;;;23.60;41.40;;;;;;5091044;28;20031;-67
2022/05/04 13:13:46;;;;;;;10.60;5.78;;;23.40;42.10;;;;;;5091824;28;20028;-66
2022/05/04 13:16:12;;;;;;;10.77;4.60;;;23.20;42.80;;;;;;5090709;28;20085;-65
2022/05/04 13:18:39;;;;;;;11.27;5.28;;;23.00;43.50;;;;;;5091980;28;20028;-67
2022/05/04 13:21:05;;;;;;;10.35;5.20;;;22.70;44.00;;;;;;5092976;28;20389;-73
2022/05/04 13:23:32;;;;;;;10.48;5.57;;;22.60;44.60;;;;;;5091656;28;20051;-65
2022/05/04 13:25:58;;;;;;;15.25;5.28;;;22.40;44.80;;;;;;5090196;28;20373;-66
2022/05/04 13:28:23;;;;;;;10.90;4.85;;;22.30;45.40;;;;;;5090891;28;20492;-65